NGO weather

Chubu Centrair International Airport
Tokoname, Aichi Prefecture, Japan

Public forecast

Using degrees Celsius for public forecast. Weather courtesy of forecast.io.

Current aviation weather report (METAR) for Chubu Centrair International Airport

Retrieved 2019/10/18 20:30 UTC (0 seconds ago):

RJGG 182030Z 28009KT 9999 FEW007 BKN015 20/18 Q1015 NOSIG

Aviation forecast (TAF) for Chubu Centrair International Airport

Retrieved 2019/10/18 18:00 UTC (2 hours ago):

TAF RJGG 181705Z 1818/2000 03006KT 8000 FEW008 BKN015 TEMPO 1818/1821 4000 -SHRA BR FEW005 BKN008 TEMPO 1821/1903 4000 BR BECMG 1906/1909 30022KT TEMPO 1906/1909 4000 SHRA BR